createdAt,value
2017-08-21T00:00:49.236Z,14.80
2017-08-21T00:03:17.492Z,14.80
2017-08-21T00:05:45.788Z,14.80
2017-08-21T00:08:14.055Z,14.80
2017-08-21T00:10:42.342Z,14.70
2017-08-21T00:13:10.593Z,14.70
2017-08-21T00:15:39.016Z,14.80
2017-08-21T00:18:07.288Z,14.80
2017-08-21T00:20:35.551Z,14.80
2017-08-21T00:23:03.825Z,14.80
2017-08-21T00:25:32.084Z,14.80
2017-08-21T00:28:00.501Z,14.80
2017-08-21T00:30:28.763Z,14.70
2017-08-21T00:32:57.101Z,14.70
2017-08-21T00:35:25.352Z,14.60
2017-08-21T00:37:54.424Z,14.60
2017-08-21T00:40:22.691Z,14.60
2017-08-21T00:42:51.089Z,14.60
2017-08-21T00:45:19.346Z,14.60
2017-08-21T00:47:47.650Z,14.50
2017-08-21T00:50:15.940Z,14.50
2017-08-21T00:52:44.212Z,14.50
2017-08-21T00:55:13.295Z,14.60
2017-08-21T00:57:41.551Z,14.60
2017-08-21T01:00:09.834Z,14.60
2017-08-21T01:02:38.124Z,14.50
2017-08-21T01:05:06.495Z,14.40
2017-08-21T01:07:34.745Z,14.30
2017-08-21T01:10:03.052Z,14.30
2017-08-21T01:12:31.425Z,14.20
2017-08-21T01:14:59.693Z,14.10
2017-08-21T01:17:28.085Z,14.10
2017-08-21T01:19:56.368Z,14.00
2017-08-21T01:22:24.746Z,14.10
2017-08-21T01:24:53.019Z,14.00
2017-08-21T01:27:21.308Z,14.00
2017-08-21T01:29:49.673Z,14.00
2017-08-21T01:32:18.073Z,14.00
2017-08-21T01:34:46.333Z,14.00
2017-08-21T01:37:14.604Z,14.00
2017-08-21T01:39:42.990Z,14.00
2017-08-21T01:42:11.265Z,14.00
2017-08-21T01:44:39.649Z,14.00
2017-08-21T01:47:07.931Z,14.00
2017-08-21T01:49:36.311Z,14.00
2017-08-21T01:52:04.564Z,14.00
2017-08-21T01:54:32.952Z,14.00
2017-08-21T01:57:01.250Z,13.90
2017-08-21T01:59:29.533Z,13.90
2017-08-21T02:01:57.882Z,13.90
2017-08-21T02:04:26.277Z,13.90
2017-08-21T02:06:54.536Z,14.00
2017-08-21T02:09:22.842Z,14.00
2017-08-21T02:11:51.116Z,14.10
2017-08-21T02:14:19.487Z,14.10
2017-08-21T02:16:47.900Z,14.10
2017-08-21T02:19:16.954Z,14.20
2017-08-21T02:21:45.338Z,14.20
2017-08-21T02:24:13.717Z,14.20
2017-08-21T02:26:42.020Z,14.30
2017-08-21T02:29:11.063Z,14.20
2017-08-21T02:31:39.370Z,14.20
2017-08-21T02:34:07.745Z,14.20
2017-08-21T02:36:36.040Z,14.30
2017-08-21T02:39:05.095Z,14.20
2017-08-21T02:41:33.362Z,14.20
2017-08-21T02:44:01.656Z,14.20
2017-08-21T02:46:29.948Z,14.10
2017-08-21T02:48:58.322Z,14.00
2017-08-21T02:51:26.698Z,13.90
2017-08-21T02:53:54.990Z,14.00
2017-08-21T02:56:23.368Z,13.90
2017-08-21T02:58:51.644Z,13.90
2017-08-21T03:01:19.954Z,14.00
2017-08-21T03:03:48.978Z,14.00
2017-08-21T03:06:17.281Z,14.00
2017-08-21T03:08:45.578Z,14.00
2017-08-21T03:11:13.856Z,14.00
2017-08-21T03:13:42.934Z,14.10
2017-08-21T03:16:11.237Z,14.00
2017-08-21T03:18:40.324Z,14.20
2017-08-21T03:21:08.574Z,14.20
2017-08-21T03:23:36.970Z,14.20
2017-08-21T03:26:05.244Z,14.10
2017-08-21T03:28:33.525Z,14.10
2017-08-21T03:31:01.810Z,14.10
2017-08-21T03:33:30.182Z,14.10
2017-08-21T03:35:58.481Z,14.10
2017-08-21T03:38:27.554Z,14.30
2017-08-21T03:40:55.818Z,14.20
2017-08-21T03:43:24.100Z,14.30
2017-08-21T03:45:52.475Z,14.30
2017-08-21T03:48:20.740Z,14.30
2017-08-21T03:50:49.028Z,14.30
2017-08-21T03:53:17.389Z,14.30
2017-08-21T03:55:45.647Z,14.40
2017-08-21T03:58:13.936Z,14.30
2017-08-21T04:00:42.316Z,14.30
2017-08-21T04:03:10.595Z,14.30
2017-08-21T04:05:38.975Z,14.30
2017-08-21T04:08:07.257Z,14.40
2017-08-21T04:10:35.552Z,14.60
2017-08-21T04:13:03.828Z,14.90
2017-08-21T04:15:32.898Z,15.10
2017-08-21T04:18:01.201Z,15.10
2017-08-21T04:20:29.454Z,15.10
2017-08-21T04:22:57.831Z,15.20
2017-08-21T04:25:26.118Z,15.20
2017-08-21T04:27:54.504Z,15.30
2017-08-21T04:30:22.774Z,15.30
2017-08-21T04:32:51.053Z,15.20
2017-08-21T04:35:19.355Z,15.00
2017-08-21T04:37:48.416Z,14.90
2017-08-21T04:40:16.816Z,14.90
2017-08-21T04:42:45.175Z,15.00
2017-08-21T04:45:13.569Z,15.00
2017-08-21T04:47:41.832Z,14.90
2017-08-21T04:50:10.180Z,15.00
2017-08-21T04:52:38.457Z,15.10
2017-08-21T04:55:06.721Z,15.00
2017-08-21T04:57:35.066Z,15.00
2017-08-21T05:00:03.322Z,15.00
2017-08-21T05:02:31.608Z,14.80
2017-08-21T05:04:59.876Z,14.90
2017-08-21T05:07:28.258Z,14.90
2017-08-21T05:09:56.552Z,14.80
2017-08-21T05:12:24.877Z,15.00
2017-08-21T05:14:53.162Z,15.10
2017-08-21T05:17:21.474Z,15.20
2017-08-21T05:19:49.862Z,15.00
2017-08-21T05:22:18.917Z,15.00
2017-08-21T05:24:47.333Z,15.00
2017-08-21T05:27:15.576Z,15.10
2017-08-21T05:29:43.985Z,15.10
2017-08-21T05:32:12.260Z,15.10
2017-08-21T05:34:40.539Z,15.10
2017-08-21T05:37:08.814Z,15.30
2017-08-21T05:39:37.210Z,15.10
2017-08-21T05:42:06.246Z,14.80
2017-08-21T05:44:34.557Z,14.80
2017-08-21T05:47:02.836Z,14.70
2017-08-21T05:49:31.113Z,14.70
2017-08-21T05:51:59.488Z,14.60
2017-08-21T05:54:27.772Z,14.60
2017-08-21T05:56:56.051Z,14.60
2017-08-21T05:59:24.405Z,14.80
2017-08-21T06:01:52.728Z,14.70
2017-08-21T06:04:21.104Z,14.80
2017-08-21T06:06:49.404Z,14.80
2017-08-21T06:09:17.752Z,14.80
2017-08-21T06:11:46.056Z,14.80
2017-08-21T06:14:14.334Z,14.70
2017-08-21T06:16:42.583Z,14.70
2017-08-21T06:19:10.867Z,14.80
2017-08-21T06:21:39.906Z,14.90
2017-08-21T06:24:08.214Z,14.90
2017-08-21T06:26:36.505Z,14.90
2017-08-21T06:29:04.859Z,14.90
2017-08-21T06:31:33.132Z,15.00
2017-08-21T06:34:01.386Z,15.00
2017-08-21T06:36:29.696Z,15.10
2017-08-21T06:38:57.967Z,15.10
2017-08-21T06:41:26.357Z,15.00
2017-08-21T06:43:54.670Z,14.90
2017-08-21T06:46:23.722Z,14.80
2017-08-21T06:48:52.010Z,14.80
2017-08-21T06:51:20.390Z,14.80
2017-08-21T06:53:48.656Z,14.80
2017-08-21T06:56:16.966Z,14.90
2017-08-21T06:58:45.250Z,15.00
2017-08-21T07:01:13.497Z,15.10
2017-08-21T07:03:41.872Z,15.30
2017-08-21T07:06:10.148Z,15.30
2017-08-21T07:08:38.421Z,15.40
2017-08-21T07:11:06.700Z,15.20
2017-08-21T07:13:35.188Z,15.20
2017-08-21T07:16:03.475Z,15.20
2017-08-21T07:18:31.760Z,15.10
2017-08-21T07:21:00.030Z,15.30
2017-08-21T07:23:28.289Z,15.50
2017-08-21T07:25:57.348Z,15.70
2017-08-21T07:28:25.628Z,15.60
2017-08-21T07:30:53.920Z,15.60
2017-08-21T07:33:22.209Z,15.50
2017-08-21T07:35:50.566Z,15.60
2017-08-21T07:38:18.843Z,15.60
2017-08-21T07:40:47.148Z,15.60
2017-08-21T07:43:15.508Z,15.70
2017-08-21T07:45:43.778Z,15.70
2017-08-21T07:48:12.221Z,15.70
2017-08-21T07:50:40.490Z,15.70
2017-08-21T07:53:08.831Z,15.70
2017-08-21T07:55:37.137Z,15.80
2017-08-21T07:58:06.244Z,16.10
2017-08-21T08:00:34.596Z,16.10
2017-08-21T08:03:02.940Z,16.20
2017-08-21T08:05:31.336Z,16.30
2017-08-21T08:07:59.604Z,16.40
2017-08-21T08:10:28.004Z,16.50
2017-08-21T08:12:56.257Z,16.60
2017-08-21T08:15:24.643Z,16.60
2017-08-21T08:17:52.912Z,16.80
2017-08-21T08:20:21.298Z,17.10
2017-08-21T08:22:49.568Z,17.10
2017-08-21T08:25:17.861Z,17.10
2017-08-21T08:27:46.233Z,17.00
2017-08-21T08:30:14.493Z,17.10
2017-08-21T08:32:42.779Z,17.10
2017-08-21T08:35:11.064Z,17.10
2017-08-21T08:37:39.446Z,17.20
2017-08-21T08:40:07.704Z,17.40
2017-08-21T08:42:36.114Z,17.40
2017-08-21T08:45:04.425Z,17.20
2017-08-21T08:47:33.564Z,17.40
2017-08-21T08:50:01.840Z,17.40
2017-08-21T08:52:30.225Z,17.50
2017-08-21T08:54:58.502Z,17.50
2017-08-21T08:57:26.760Z,17.40
2017-08-21T08:59:55.082Z,17.70
2017-08-21T09:02:23.348Z,17.80
2017-08-21T09:04:51.728Z,17.90
2017-08-21T09:07:19.990Z,18.10
2017-08-21T09:09:48.478Z,18.20
2017-08-21T09:12:16.746Z,18.30
2017-08-21T09:14:45.063Z,18.10
2017-08-21T09:17:14.122Z,18.00
2017-08-21T09:19:42.453Z,17.90
2017-08-21T09:22:10.784Z,18.00
2017-08-21T09:24:39.030Z,18.20
2017-08-21T09:27:07.314Z,18.20
2017-08-21T09:29:35.614Z,18.40
2017-08-21T09:32:03.994Z,18.50
2017-08-21T09:34:32.266Z,18.60
2017-08-21T09:37:00.676Z,18.80
2017-08-21T09:39:29.750Z,18.50
2017-08-21T09:41:58.022Z,18.50
2017-08-21T09:44:26.402Z,18.30
2017-08-21T09:46:55.083Z,18.20
2017-08-21T09:49:23.368Z,18.30
2017-08-21T09:51:51.649Z,18.60
2017-08-21T09:54:20.034Z,19.00
2017-08-21T09:56:48.298Z,19.20
2017-08-21T09:59:53.445Z,19.20
2017-08-21T10:02:21.726Z,18.90
2017-08-21T10:04:50.110Z,18.60
2017-08-21T10:07:18.404Z,18.50
2017-08-21T10:09:46.753Z,18.40
2017-08-21T10:12:15.025Z,18.40
2017-08-21T10:14:43.309Z,18.50
2017-08-21T10:17:11.588Z,18.60
2017-08-21T10:19:39.861Z,18.60
2017-08-21T10:22:08.150Z,18.50
2017-08-21T10:24:36.511Z,18.30
2017-08-21T10:27:04.898Z,18.00
2017-08-21T10:29:33.255Z,17.90
2017-08-21T10:32:01.558Z,17.70
2017-08-21T10:34:29.827Z,17.90
2017-08-21T10:36:58.209Z,18.20
2017-08-21T10:39:26.490Z,18.40
2017-08-21T10:41:54.865Z,18.50
2017-08-21T10:44:23.153Z,18.40
2017-08-21T10:46:51.481Z,18.30
2017-08-21T10:49:19.873Z,18.10
2017-08-21T10:51:48.135Z,18.20
2017-08-21T10:54:16.420Z,18.30
2017-08-21T10:56:44.702Z,18.50
2017-08-21T10:59:13.073Z,18.80
2017-08-21T11:01:41.356Z,19.10
2017-08-21T11:04:09.605Z,19.40
2017-08-21T11:06:37.915Z,19.50
2017-08-21T11:09:06.174Z,19.30
2017-08-21T11:11:34.471Z,19.20
2017-08-21T11:14:02.755Z,18.70
2017-08-21T11:16:31.124Z,18.10
2017-08-21T11:18:59.402Z,17.70
2017-08-21T11:21:27.708Z,17.50
2017-08-21T11:23:55.956Z,17.50
2017-08-21T11:26:24.225Z,17.70
2017-08-21T11:28:52.508Z,18.00
2017-08-21T11:31:20.768Z,18.50
2017-08-21T11:33:49.141Z,18.80
2017-08-21T11:36:17.438Z,19.00
2017-08-21T11:38:45.726Z,19.20
2017-08-21T11:41:13.980Z,19.50
2017-08-21T11:43:42.373Z,19.80
2017-08-21T11:46:10.667Z,20.40
2017-08-21T11:48:39.033Z,20.70
2017-08-21T11:51:07.313Z,20.70
2017-08-21T11:53:35.576Z,20.70
2017-08-21T11:56:03.970Z,20.70
2017-08-21T11:58:32.256Z,21.00
2017-08-21T12:01:00.621Z,21.40
2017-08-21T12:03:28.899Z,21.60
2017-08-21T12:05:57.275Z,21.70
2017-08-21T12:08:25.564Z,21.70
2017-08-21T12:10:53.938Z,21.50
2017-08-21T12:13:22.197Z,21.50
2017-08-21T12:15:50.547Z,21.20
2017-08-21T12:18:18.871Z,20.90
2017-08-21T12:20:47.142Z,20.40
2017-08-21T12:23:15.530Z,20.00
2017-08-21T12:25:43.788Z,19.70
2017-08-21T12:28:12.076Z,19.10
2017-08-21T12:30:40.463Z,19.00
2017-08-21T12:33:08.747Z,19.10
2017-08-21T12:35:36.998Z,19.50
2017-08-21T12:38:05.378Z,20.20
2017-08-21T12:40:33.661Z,20.30
2017-08-21T12:43:01.942Z,20.30
2017-08-21T12:45:30.355Z,20.40
2017-08-21T12:47:58.706Z,20.70
2017-08-21T12:50:27.081Z,20.70
2017-08-21T12:52:55.353Z,20.40
2017-08-21T12:55:23.748Z,20.40
2017-08-21T12:57:52.119Z,20.00
2017-08-21T13:00:20.491Z,19.60
2017-08-21T13:02:48.773Z,20.40
2017-08-21T13:05:17.165Z,21.70
2017-08-21T13:07:45.430Z,22.20
2017-08-21T13:10:13.680Z,23.30
2017-08-21T13:12:41.970Z,24.20
2017-08-21T13:15:10.267Z,26.40
2017-08-21T13:17:38.647Z,26.20
2017-08-21T13:20:06.910Z,26.40
2017-08-21T13:22:35.211Z,25.60
2017-08-21T13:25:03.574Z,25.10
2017-08-21T13:27:31.958Z,24.10
2017-08-21T13:30:00.231Z,23.00
2017-08-21T13:32:28.604Z,22.40
2017-08-21T13:34:56.897Z,22.60
2017-08-21T13:37:25.166Z,22.70
2017-08-21T13:39:53.456Z,22.30
2017-08-21T13:42:21.846Z,22.20
2017-08-21T13:44:50.112Z,22.50
2017-08-21T13:47:18.578Z,22.40
2017-08-21T13:49:46.961Z,22.30
2017-08-21T13:52:15.235Z,22.30
2017-08-21T13:54:43.520Z,22.30
2017-08-21T13:57:11.789Z,22.40
2017-08-21T13:59:40.174Z,22.20
2017-08-21T14:02:08.433Z,21.70
2017-08-21T14:04:36.697Z,21.30
2017-08-21T14:07:05.013Z,21.00
2017-08-21T14:09:33.385Z,20.00
2017-08-21T14:12:01.667Z,19.20
2017-08-21T14:14:29.916Z,18.80
2017-08-21T14:16:58.207Z,18.60
2017-08-21T14:19:26.493Z,18.20
2017-08-21T14:21:54.781Z,17.50
2017-08-21T14:24:23.144Z,17.20
2017-08-21T14:26:51.527Z,17.00
2017-08-21T14:29:19.806Z,17.00
2017-08-21T14:31:48.069Z,17.00
2017-08-21T14:34:16.462Z,17.10
2017-08-21T14:36:44.736Z,17.20
2017-08-21T14:39:13.120Z,17.30
2017-08-21T14:41:41.386Z,17.20
2017-08-21T14:44:09.778Z,17.20
2017-08-21T14:46:38.037Z,17.20
2017-08-21T14:49:06.369Z,17.20
2017-08-21T14:51:34.713Z,17.20
2017-08-21T14:54:03.095Z,17.30
2017-08-21T14:56:31.353Z,17.40
2017-08-21T14:58:59.739Z,17.60
2017-08-21T15:01:28.016Z,18.00
2017-08-21T15:03:56.293Z,18.30
2017-08-21T15:06:24.670Z,18.60
2017-08-21T15:08:52.949Z,18.90
2017-08-21T15:11:21.341Z,19.20
2017-08-21T15:13:49.710Z,19.50
2017-08-21T15:16:18.093Z,20.40
2017-08-21T15:18:46.363Z,22.10
2017-08-21T15:21:14.745Z,23.20
2017-08-21T15:23:43.004Z,23.10
2017-08-21T15:26:11.276Z,23.00
2017-08-21T15:28:39.576Z,22.60
2017-08-21T15:31:07.866Z,22.20
2017-08-21T15:33:36.145Z,22.20
2017-08-21T15:36:04.410Z,22.40
2017-08-21T15:38:32.703Z,22.00
2017-08-21T15:41:01.066Z,21.20
2017-08-21T15:43:29.442Z,20.90
2017-08-21T15:45:57.697Z,20.50
2017-08-21T15:48:25.995Z,20.00
2017-08-21T15:50:54.298Z,19.70
2017-08-21T15:53:22.561Z,19.60
2017-08-21T15:55:50.841Z,19.30
2017-08-21T15:58:19.211Z,19.20
2017-08-21T16:00:47.507Z,19.00
2017-08-21T16:03:15.784Z,18.90
2017-08-21T16:05:44.060Z,18.70
2017-08-21T16:08:12.340Z,18.60
2017-08-21T16:10:40.684Z,18.60
2017-08-21T16:13:08.955Z,18.60
2017-08-21T16:15:37.232Z,18.70
2017-08-21T16:18:05.619Z,18.70
2017-08-21T16:20:34.090Z,18.70
2017-08-21T16:23:02.471Z,18.80
2017-08-21T16:25:30.856Z,19.00
2017-08-21T16:27:59.223Z,19.20
2017-08-21T16:30:27.497Z,19.30
2017-08-21T16:32:55.894Z,19.20
2017-08-21T16:35:24.160Z,19.40
2017-08-21T16:37:52.565Z,19.70
2017-08-21T16:40:20.815Z,19.80
2017-08-21T16:42:49.127Z,19.70
2017-08-21T16:45:17.507Z,19.60
2017-08-21T16:47:45.860Z,19.50
2017-08-21T16:50:14.237Z,19.40
2017-08-21T16:52:42.498Z,19.20
2017-08-21T16:55:10.785Z,19.00
2017-08-21T16:57:39.067Z,18.90
2017-08-21T17:00:07.374Z,18.90
2017-08-21T17:02:35.662Z,18.60
2017-08-21T17:05:03.996Z,18.40
2017-08-21T17:07:32.378Z,18.40
2017-08-21T17:10:00.771Z,18.10
2017-08-21T17:12:29.034Z,17.90
2017-08-21T17:14:57.362Z,17.40
2017-08-21T17:17:25.746Z,17.00
2017-08-21T17:19:54.022Z,16.80
2017-08-21T17:22:22.402Z,16.60
2017-08-21T17:24:50.678Z,16.50
2017-08-21T17:27:19.063Z,16.40
2017-08-21T17:29:47.330Z,16.40
2017-08-21T17:32:15.703Z,16.40
2017-08-21T17:34:44.088Z,16.40
2017-08-21T17:37:12.417Z,16.50
2017-08-21T17:39:40.704Z,16.40
2017-08-21T17:42:09.036Z,16.50
2017-08-21T17:44:37.349Z,16.50
2017-08-21T17:47:05.634Z,16.40
2017-08-21T17:49:34.015Z,16.40
2017-08-21T17:52:02.380Z,16.50
2017-08-21T17:54:30.692Z,16.40
2017-08-21T17:56:59.033Z,16.40
2017-08-21T17:59:27.428Z,16.40
2017-08-21T18:01:55.802Z,16.40
2017-08-21T18:04:24.188Z,16.40
2017-08-21T18:06:52.552Z,16.40
2017-08-21T18:09:20.940Z,16.40
2017-08-21T18:11:49.315Z,16.40
2017-08-21T18:14:17.573Z,16.40
2017-08-21T18:16:45.868Z,16.50
2017-08-21T18:19:14.129Z,16.50
2017-08-21T18:21:42.569Z,16.50
2017-08-21T18:24:10.874Z,16.60
2017-08-21T18:26:39.174Z,16.60
2017-08-21T18:29:07.445Z,16.60
2017-08-21T18:31:35.845Z,16.70
2017-08-21T18:34:04.198Z,16.70
2017-08-21T18:36:32.576Z,16.70
2017-08-21T18:39:00.833Z,16.80
2017-08-21T18:41:29.115Z,16.80
2017-08-21T18:43:57.384Z,16.90
2017-08-21T18:46:25.670Z,16.90
2017-08-21T18:48:54.074Z,16.80
2017-08-21T18:51:22.425Z,16.80
2017-08-21T18:53:50.792Z,16.70
2017-08-21T18:56:19.046Z,16.70
2017-08-21T18:58:47.469Z,16.70
2017-08-21T19:01:15.771Z,16.70
2017-08-21T19:03:44.072Z,16.70
2017-08-21T19:06:12.395Z,16.60
2017-08-21T19:08:40.770Z,16.70
2017-08-21T19:11:09.063Z,16.60
2017-08-21T19:13:37.519Z,16.60
2017-08-21T19:16:05.787Z,16.60
2017-08-21T19:18:34.164Z,16.60
2017-08-21T19:21:02.483Z,16.60
2017-08-21T19:23:30.800Z,16.60
2017-08-21T19:25:59.077Z,16.60
2017-08-21T19:28:27.354Z,16.70
2017-08-21T19:30:55.641Z,16.70
2017-08-21T19:33:23.934Z,16.70
2017-08-21T19:35:52.194Z,16.70
2017-08-21T19:38:20.482Z,16.80
2017-08-21T19:40:48.759Z,16.70
2017-08-21T19:43:17.140Z,16.60
2017-08-21T19:45:45.405Z,16.60
2017-08-21T19:48:13.714Z,16.60
2017-08-21T19:50:42.001Z,16.60
2017-08-21T19:53:10.262Z,16.60
2017-08-21T19:55:38.549Z,16.70
2017-08-21T19:58:06.820Z,16.60
2017-08-21T20:00:35.101Z,16.60
2017-08-21T20:03:03.355Z,16.70
2017-08-21T20:05:31.735Z,16.70
2017-08-21T20:08:00.106Z,16.70
2017-08-21T20:10:28.407Z,16.60
2017-08-21T20:12:56.681Z,16.70
2017-08-21T20:15:24.945Z,16.60
2017-08-21T20:17:53.317Z,16.60
2017-08-21T20:20:21.679Z,16.50
2017-08-21T20:22:50.171Z,16.50
2017-08-21T20:25:18.449Z,16.50
2017-08-21T20:27:46.743Z,16.40
2017-08-21T20:30:15.025Z,16.40
2017-08-21T20:32:43.390Z,16.40
2017-08-21T20:35:11.748Z,16.40
2017-08-21T20:37:40.039Z,16.30
2017-08-21T20:40:08.430Z,16.30
2017-08-21T20:42:36.712Z,16.20
2017-08-21T20:45:05.097Z,16.20
2017-08-21T20:47:33.347Z,16.20
2017-08-21T20:50:01.630Z,16.20
2017-08-21T20:52:29.921Z,16.10
2017-08-21T20:54:58.248Z,16.10
2017-08-21T20:57:26.537Z,16.10
2017-08-21T20:59:54.843Z,16.10
2017-08-21T21:02:23.212Z,16.10
2017-08-21T21:04:51.514Z,16.00
2017-08-21T21:07:19.898Z,16.00
2017-08-21T21:09:48.254Z,16.10
2017-08-21T21:12:16.535Z,16.10
2017-08-21T21:14:44.805Z,16.00
2017-08-21T21:17:13.226Z,16.10
2017-08-21T21:19:41.494Z,16.10
2017-08-21T21:22:09.846Z,16.00
2017-08-21T21:24:38.153Z,16.00
2017-08-21T21:27:06.409Z,16.00
2017-08-21T21:29:34.777Z,15.90
2017-08-21T21:32:03.045Z,15.90
2017-08-21T21:34:31.431Z,15.90
2017-08-21T21:36:59.705Z,15.80
2017-08-21T21:39:28.111Z,15.70
2017-08-21T21:41:56.464Z,15.70
2017-08-21T21:44:24.862Z,15.70
2017-08-21T21:46:53.223Z,15.70
2017-08-21T21:49:21.500Z,15.60
2017-08-21T21:51:49.884Z,15.60
2017-08-21T21:54:18.158Z,15.60
2017-08-21T21:56:46.639Z,15.60
2017-08-21T21:59:14.943Z,15.50
2017-08-21T22:01:43.293Z,15.50
2017-08-21T22:04:11.562Z,15.40
2017-08-21T22:06:39.957Z,15.40
2017-08-21T22:09:08.346Z,15.40
2017-08-21T22:11:36.616Z,15.30
2017-08-21T22:14:04.993Z,15.30
2017-08-21T22:16:33.364Z,15.30
2017-08-21T22:19:01.663Z,15.30
2017-08-21T22:21:30.032Z,15.20
2017-08-21T22:23:58.313Z,15.20
2017-08-21T22:26:26.599Z,15.10
2017-08-21T22:28:54.961Z,15.10
2017-08-21T22:31:23.218Z,15.10
2017-08-21T22:33:51.515Z,15.00
2017-08-21T22:36:19.816Z,15.00
2017-08-21T22:38:48.191Z,15.00
2017-08-21T22:41:16.463Z,15.00
2017-08-21T22:43:44.836Z,14.90
2017-08-21T22:46:13.243Z,14.90
2017-08-21T22:48:41.604Z,14.80
2017-08-21T22:51:09.906Z,14.80
2017-08-21T22:53:38.340Z,14.80
2017-08-21T22:56:06.728Z,14.80
2017-08-21T22:58:35.112Z,14.80
2017-08-21T23:03:56.531Z,14.70
2017-08-21T23:06:24.824Z,14.60
2017-08-21T23:08:53.198Z,14.60
2017-08-21T23:11:21.574Z,14.60
2017-08-21T23:13:49.827Z,14.60
2017-08-21T23:16:18.138Z,14.60
2017-08-21T23:18:46.418Z,14.60
2017-08-21T23:21:14.780Z,14.60
2017-08-21T23:23:43.069Z,14.50
2017-08-21T23:26:11.347Z,14.40
2017-08-21T23:28:39.625Z,14.40
2017-08-21T23:31:08.006Z,14.40
2017-08-21T23:33:36.282Z,14.40
2017-08-21T23:36:04.547Z,14.40
2017-08-21T23:38:32.928Z,14.30
2017-08-21T23:41:02.238Z,14.40
2017-08-21T23:43:30.510Z,14.40
2017-08-21T23:45:58.829Z,14.40
2017-08-21T23:48:27.098Z,14.30
2017-08-21T23:50:55.418Z,14.30
2017-08-21T23:53:23.773Z,14.30
2017-08-21T23:55:52.028Z,14.30
2017-08-21T23:58:20.317Z,14.30
